sensor_id;sensor_type;location;lat;lon;timestamp;P1;durP1;ratioP1;P2;durP2;ratioP2
66189;SDS011;52992;52.084;5.412;2022-07-09T00:01:23;7.10;;;4.60;;
66189;SDS011;52992;52.084;5.412;2022-07-09T00:03:50;6.50;;;4.60;;
66189;SDS011;52992;52.084;5.412;2022-07-09T00:06:21;6.73;;;4.80;;
66189;SDS011;52992;52.084;5.412;2022-07-09T00:08:48;6.77;;;4.57;;
66189;SDS011;52992;52.084;5.412;2022-07-09T00:11:15;7.03;;;4.83;;
66189;SDS011;52992;52.084;5.412;2022-07-09T00:13:42;10.23;;;4.93;;
66189;SDS011;52992;52.084;5.412;2022-07-09T00:16:09;8.07;;;4.47;;
66189;SDS011;52992;52.084;5.412;2022-07-09T00:18:36;6.93;;;5.00;;
66189;SDS011;52992;52.084;5.412;2022-07-09T00:21:03;7.70;;;5.33;;
66189;SDS011;52992;52.084;5.412;2022-07-09T00:23:30;6.57;;;5.10;;
66189;SDS011;52992;52.084;5.412;2022-07-09T00:25:57;7.10;;;4.97;;
66189;SDS011;52992;52.084;5.412;2022-07-09T00:28:24;6.40;;;5.00;;
66189;SDS011;52992;52.084;5.412;2022-07-09T00:30:51;8.93;;;5.47;;
66189;SDS011;52992;52.084;5.412;2022-07-09T00:33:18;7.50;;;5.43;;
66189;SDS011;52992;52.084;5.412;2022-07-09T00:35:45;6.83;;;5.17;;
66189;SDS011;52992;52.084;5.412;2022-07-09T00:38:12;6.57;;;5.20;;
66189;SDS011;52992;52.084;5.412;2022-07-09T00:40:41;6.37;;;5.00;;
66189;SDS011;52992;52.084;5.412;2022-07-09T00:43:15;6.07;;;4.83;;
66189;SDS011;52992;52.084;5.412;2022-07-09T00:45:46;6.93;;;5.77;;
66189;SDS011;52992;52.084;5.412;2022-07-09T00:48:14;9.27;;;6.63;;
66189;SDS011;52992;52.084;5.412;2022-07-09T00:50:42;10.57;;;5.63;;
66189;SDS011;52992;52.084;5.412;2022-07-09T00:53:10;11.00;;;5.53;;
66189;SDS011;52992;52.084;5.412;2022-07-09T00:55:39;9.80;;;6.60;;
66189;SDS011;52992;52.084;5.412;2022-07-09T00:58:08;8.53;;;6.33;;
66189;SDS011;52992;52.084;5.412;2022-07-09T01:00:35;8.03;;;6.27;;
66189;SDS011;52992;52.084;5.412;2022-07-09T01:03:02;11.17;;;6.03;;
66189;SDS011;52992;52.084;5.412;2022-07-09T01:05:29;8.37;;;5.90;;
66189;SDS011;52992;52.084;5.412;2022-07-09T01:08:05;9.27;;;6.33;;
66189;SDS011;52992;52.084;5.412;2022-07-09T01:10:34;9.63;;;6.47;;
66189;SDS011;52992;52.084;5.412;2022-07-09T01:13:02;10.30;;;5.93;;
66189;SDS011;52992;52.084;5.412;2022-07-09T01:15:30;10.07;;;6.67;;
66189;SDS011;52992;52.084;5.412;2022-07-09T01:17:58;10.20;;;6.70;;
66189;SDS011;52992;52.084;5.412;2022-07-09T01:20:25;11.47;;;6.83;;
66189;SDS011;52992;52.084;5.412;2022-07-09T01:22:53;8.37;;;6.47;;
66189;SDS011;52992;52.084;5.412;2022-07-09T01:25:19;7.23;;;6.10;;
66189;SDS011;52992;52.084;5.412;2022-07-09T01:28:00;8.17;;;6.10;;
66189;SDS011;52992;52.084;5.412;2022-07-09T01:30:27;8.73;;;6.17;;
66189;SDS011;52992;52.084;5.412;2022-07-09T01:32:55;9.30;;;6.80;;
66189;SDS011;52992;52.084;5.412;2022-07-09T01:35:22;11.23;;;6.63;;
66189;SDS011;52992;52.084;5.412;2022-07-09T01:37:49;10.20;;;6.93;;
66189;SDS011;52992;52.084;5.412;2022-07-09T01:40:16;9.80;;;6.87;;
66189;SDS011;52992;52.084;5.412;2022-07-09T01:42:43;9.33;;;6.30;;
66189;SDS011;52992;52.084;5.412;2022-07-09T01:45:10;10.27;;;6.13;;
66189;SDS011;52992;52.084;5.412;2022-07-09T01:47:37;11.17;;;7.40;;
66189;SDS011;52992;52.084;5.412;2022-07-09T01:50:04;9.27;;;6.70;;
66189;SDS011;52992;52.084;5.412;2022-07-09T01:52:32;9.40;;;6.73;;
66189;SDS011;52992;52.084;5.412;2022-07-09T01:54:59;7.63;;;6.23;;
66189;SDS011;52992;52.084;5.412;2022-07-09T01:57:27;8.83;;;7.13;;
66189;SDS011;52992;52.084;5.412;2022-07-09T01:59:54;10.73;;;6.60;;
66189;SDS011;52992;52.084;5.412;2022-07-09T02:02:20;11.30;;;6.80;;
66189;SDS011;52992;52.084;5.412;2022-07-09T02:04:47;10.67;;;7.70;;
66189;SDS011;52992;52.084;5.412;2022-07-09T02:07:14;8.70;;;7.00;;
66189;SDS011;52992;52.084;5.412;2022-07-09T02:09:41;9.90;;;6.60;;
66189;SDS011;52992;52.084;5.412;2022-07-09T02:12:08;10.77;;;6.53;;
66189;SDS011;52992;52.084;5.412;2022-07-09T02:14:35;9.10;;;6.70;;
66189;SDS011;52992;52.084;5.412;2022-07-09T02:17:01;8.97;;;6.77;;
66189;SDS011;52992;52.084;5.412;2022-07-09T02:19:29;12.67;;;7.40;;
66189;SDS011;52992;52.084;5.412;2022-07-09T02:21:56;10.43;;;7.00;;
66189;SDS011;52992;52.084;5.412;2022-07-09T02:24:22;9.70;;;6.40;;
66189;SDS011;52992;52.084;5.412;2022-07-09T02:26:49;10.07;;;6.50;;
66189;SDS011;52992;52.084;5.412;2022-07-09T02:29:16;9.47;;;7.20;;
66189;SDS011;52992;52.084;5.412;2022-07-09T02:31:43;11.50;;;6.87;;
66189;SDS011;52992;52.084;5.412;2022-07-09T02:34:10;9.60;;;6.70;;
66189;SDS011;52992;52.084;5.412;2022-07-09T02:36:36;9.27;;;6.40;;
66189;SDS011;52992;52.084;5.412;2022-07-09T02:39:03;8.63;;;6.40;;
66189;SDS011;52992;52.084;5.412;2022-07-09T02:41:30;9.53;;;7.27;;
66189;SDS011;52992;52.084;5.412;2022-07-09T02:43:57;13.53;;;7.20;;
66189;SDS011;52992;52.084;5.412;2022-07-09T02:46:24;12.30;;;7.20;;
66189;SDS011;52992;52.084;5.412;2022-07-09T02:48:50;10.00;;;6.90;;
66189;SDS011;52992;52.084;5.412;2022-07-09T02:51:17;12.80;;;6.67;;
66189;SDS011;52992;52.084;5.412;2022-07-09T02:53:44;9.37;;;6.67;;
66189;SDS011;52992;52.084;5.412;2022-07-09T02:56:11;10.07;;;6.27;;
66189;SDS011;52992;52.084;5.412;2022-07-09T02:58:38;10.80;;;7.27;;
66189;SDS011;52992;52.084;5.412;2022-07-09T03:01:05;9.77;;;6.30;;
66189;SDS011;52992;52.084;5.412;2022-07-09T03:03:32;9.97;;;7.37;;
66189;SDS011;52992;52.084;5.412;2022-07-09T03:06:05;12.20;;;8.97;;
66189;SDS011;52992;52.084;5.412;2022-07-09T03:08:34;14.30;;;8.70;;
66189;SDS011;52992;52.084;5.412;2022-07-09T03:11:02;11.83;;;8.20;;
66189;SDS011;52992;52.084;5.412;2022-07-09T03:13:28;14.93;;;9.07;;
66189;SDS011;52992;52.084;5.412;2022-07-09T03:15:55;13.37;;;8.77;;
66189;SDS011;52992;52.084;5.412;2022-07-09T03:18:23;14.20;;;9.50;;
66189;SDS011;52992;52.084;5.412;2022-07-09T03:20:50;14.83;;;10.50;;
66189;SDS011;52992;52.084;5.412;2022-07-09T03:23:17;19.47;;;10.53;;
66189;SDS011;52992;52.084;5.412;2022-07-09T03:25:44;15.70;;;10.87;;
66189;SDS011;52992;52.084;5.412;2022-07-09T03:28:11;18.73;;;11.43;;
66189;SDS011;52992;52.084;5.412;2022-07-09T03:30:37;19.37;;;11.73;;
66189;SDS011;52992;52.084;5.412;2022-07-09T03:33:04;19.17;;;11.03;;
66189;SDS011;52992;52.084;5.412;2022-07-09T03:35:31;20.40;;;12.63;;
66189;SDS011;52992;52.084;5.412;2022-07-09T03:37:58;18.13;;;11.63;;
66189;SDS011;52992;52.084;5.412;2022-07-09T03:40:25;18.97;;;11.30;;
66189;SDS011;52992;52.084;5.412;2022-07-09T03:42:52;21.13;;;11.80;;
66189;SDS011;52992;52.084;5.412;2022-07-09T03:45:19;19.73;;;12.03;;
66189;SDS011;52992;52.084;5.412;2022-07-09T03:47:46;18.67;;;11.90;;
66189;SDS011;52992;52.084;5.412;2022-07-09T03:50:14;18.07;;;11.37;;
66189;SDS011;52992;52.084;5.412;2022-07-09T03:52:41;19.60;;;12.10;;
66189;SDS011;52992;52.084;5.412;2022-07-09T03:55:08;17.30;;;11.17;;
66189;SDS011;52992;52.084;5.412;2022-07-09T03:57:35;17.50;;;11.20;;
66189;SDS011;52992;52.084;5.412;2022-07-09T04:00:03;18.53;;;12.17;;
66189;SDS011;52992;52.084;5.412;2022-07-09T04:02:39;20.73;;;12.07;;
66189;SDS011;52992;52.084;5.412;2022-07-09T04:05:06;25.57;;;12.43;;
66189;SDS011;52992;52.084;5.412;2022-07-09T04:07:35;24.53;;;12.90;;
66189;SDS011;52992;52.084;5.412;2022-07-09T04:10:02;25.70;;;14.43;;
66189;SDS011;52992;52.084;5.412;2022-07-09T04:12:29;24.73;;;13.03;;
66189;SDS011;52992;52.084;5.412;2022-07-09T04:14:56;30.50;;;14.87;;
66189;SDS011;52992;52.084;5.412;2022-07-09T04:17:23;32.40;;;15.93;;
66189;SDS011;52992;52.084;5.412;2022-07-09T04:19:50;31.53;;;14.80;;
66189;SDS011;52992;52.084;5.412;2022-07-09T04:22:16;34.93;;;16.37;;
66189;SDS011;52992;52.084;5.412;2022-07-09T04:24:43;27.87;;;13.97;;
66189;SDS011;52992;52.084;5.412;2022-07-09T04:27:10;37.70;;;16.63;;
66189;SDS011;52992;52.084;5.412;2022-07-09T04:29:37;31.97;;;14.90;;
66189;SDS011;52992;52.084;5.412;2022-07-09T04:32:04;31.70;;;14.70;;
66189;SDS011;52992;52.084;5.412;2022-07-09T04:34:31;26.13;;;14.30;;
66189;SDS011;52992;52.084;5.412;2022-07-09T04:36:57;32.27;;;15.50;;
66189;SDS011;52992;52.084;5.412;2022-07-09T04:39:24;28.73;;;14.50;;
66189;SDS011;52992;52.084;5.412;2022-07-09T04:41:51;35.33;;;16.03;;
66189;SDS011;52992;52.084;5.412;2022-07-09T04:44:18;32.93;;;15.20;;
66189;SDS011;52992;52.084;5.412;2022-07-09T04:46:48;29.00;;;14.40;;
66189;SDS011;52992;52.084;5.412;2022-07-09T04:49:15;33.00;;;14.77;;
66189;SDS011;52992;52.084;5.412;2022-07-09T04:51:42;33.70;;;16.20;;
66189;SDS011;52992;52.084;5.412;2022-07-09T04:54:09;31.90;;;16.13;;
66189;SDS011;52992;52.084;5.412;2022-07-09T04:56:36;29.00;;;14.93;;
66189;SDS011;52992;52.084;5.412;2022-07-09T04:59:03;32.13;;;16.43;;
66189;SDS011;52992;52.084;5.412;2022-07-09T05:01:30;32.47;;;16.27;;
66189;SDS011;52992;52.084;5.412;2022-07-09T05:03:57;32.37;;;16.43;;
66189;SDS011;52992;52.084;5.412;2022-07-09T05:06:27;34.73;;;17.13;;
66189;SDS011;52992;52.084;5.412;2022-07-09T05:08:54;33.10;;;16.43;;
66189;SDS011;52992;52.084;5.412;2022-07-09T05:11:22;31.53;;;16.40;;
66189;SDS011;52992;52.084;5.412;2022-07-09T05:13:48;34.90;;;16.47;;
66189;SDS011;52992;52.084;5.412;2022-07-09T05:16:24;31.87;;;16.23;;
66189;SDS011;52992;52.084;5.412;2022-07-09T05:18:55;30.33;;;16.60;;
66189;SDS011;52992;52.084;5.412;2022-07-09T05:21:25;32.50;;;15.77;;
66189;SDS011;52992;52.084;5.412;2022-07-09T05:23:52;25.13;;;13.83;;
66189;SDS011;52992;52.084;5.412;2022-07-09T05:26:22;26.97;;;14.13;;
66189;SDS011;52992;52.084;5.412;2022-07-09T05:28:49;28.23;;;15.10;;
66189;SDS011;52992;52.084;5.412;2022-07-09T05:31:16;27.43;;;14.90;;
66189;SDS011;52992;52.084;5.412;2022-07-09T05:34:01;28.07;;;15.10;;
66189;SDS011;52992;52.084;5.412;2022-07-09T05:36:28;23.80;;;13.00;;
66189;SDS011;52992;52.084;5.412;2022-07-09T05:38:56;28.83;;;14.87;;
66189;SDS011;52992;52.084;5.412;2022-07-09T05:41:24;27.63;;;13.87;;
66189;SDS011;52992;52.084;5.412;2022-07-09T05:43:51;22.43;;;13.97;;
66189;SDS011;52992;52.084;5.412;2022-07-09T05:46:19;27.50;;;13.97;;
66189;SDS011;52992;52.084;5.412;2022-07-09T05:48:47;23.10;;;13.53;;
66189;SDS011;52992;52.084;5.412;2022-07-09T05:51:15;27.80;;;14.60;;
66189;SDS011;52992;52.084;5.412;2022-07-09T05:53:42;30.17;;;15.87;;
66189;SDS011;52992;52.084;5.412;2022-07-09T05:56:09;27.40;;;14.87;;
66189;SDS011;52992;52.084;5.412;2022-07-09T05:58:36;29.73;;;15.73;;
66189;SDS011;52992;52.084;5.412;2022-07-09T06:01:04;25.97;;;14.20;;
66189;SDS011;52992;52.084;5.412;2022-07-09T06:03:32;23.73;;;13.40;;
66189;SDS011;52992;52.084;5.412;2022-07-09T06:05:59;27.03;;;15.03;;
66189;SDS011;52992;52.084;5.412;2022-07-09T06:08:26;23.20;;;13.63;;
66189;SDS011;52992;52.084;5.412;2022-07-09T06:10:53;22.30;;;12.80;;
66189;SDS011;52992;52.084;5.412;2022-07-09T06:13:20;25.30;;;14.27;;
66189;SDS011;52992;52.084;5.412;2022-07-09T06:15:47;22.27;;;13.70;;
66189;SDS011;52992;52.084;5.412;2022-07-09T06:18:14;25.53;;;13.00;;
66189;SDS011;52992;52.084;5.412;2022-07-09T06:20:41;20.37;;;12.03;;
66189;SDS011;52992;52.084;5.412;2022-07-09T06:23:08;19.17;;;11.93;;
66189;SDS011;52992;52.084;5.412;2022-07-09T06:25:35;21.77;;;12.77;;
66189;SDS011;52992;52.084;5.412;2022-07-09T06:28:06;19.23;;;12.00;;
66189;SDS011;52992;52.084;5.412;2022-07-09T06:30:33;18.27;;;10.27;;
66189;SDS011;52992;52.084;5.412;2022-07-09T06:33:00;23.43;;;11.37;;
66189;SDS011;52992;52.084;5.412;2022-07-09T06:35:27;22.10;;;11.57;;
66189;SDS011;52992;52.084;5.412;2022-07-09T06:37:54;17.90;;;11.13;;
66189;SDS011;52992;52.084;5.412;2022-07-09T06:40:21;17.97;;;10.57;;
66189;SDS011;52992;52.084;5.412;2022-07-09T06:42:48;17.67;;;10.77;;
66189;SDS011;52992;52.084;5.412;2022-07-09T06:45:23;16.77;;;10.67;;
66189;SDS011;52992;52.084;5.412;2022-07-09T06:47:50;13.47;;;8.77;;
66189;SDS011;52992;52.084;5.412;2022-07-09T06:50:19;9.37;;;7.67;;
66189;SDS011;52992;52.084;5.412;2022-07-09T06:52:46;7.90;;;6.40;;
66189;SDS011;52992;52.084;5.412;2022-07-09T06:55:13;10.40;;;7.00;;
66189;SDS011;52992;52.084;5.412;2022-07-09T06:57:40;8.80;;;6.37;;
66189;SDS011;52992;52.084;5.412;2022-07-09T07:00:07;8.33;;;6.33;;
66189;SDS011;52992;52.084;5.412;2022-07-09T07:02:35;9.10;;;6.47;;
66189;SDS011;52992;52.084;5.412;2022-07-09T07:05:02;7.13;;;6.27;;
66189;SDS011;52992;52.084;5.412;2022-07-09T07:07:29;9.13;;;5.70;;
66189;SDS011;52992;52.084;5.412;2022-07-09T07:09:56;9.43;;;7.07;;
66189;SDS011;52992;52.084;5.412;2022-07-09T07:12:22;9.63;;;7.57;;
66189;SDS011;52992;52.084;5.412;2022-07-09T07:14:49;11.90;;;7.63;;
66189;SDS011;52992;52.084;5.412;2022-07-09T07:17:16;9.73;;;7.33;;
66189;SDS011;52992;52.084;5.412;2022-07-09T07:19:43;11.57;;;8.43;;
66189;SDS011;52992;52.084;5.412;2022-07-09T07:22:13;13.13;;;9.23;;
66189;SDS011;52992;52.084;5.412;2022-07-09T07:24:40;13.60;;;9.23;;
66189;SDS011;52992;52.084;5.412;2022-07-09T07:27:06;13.63;;;8.87;;
66189;SDS011;52992;52.084;5.412;2022-07-09T07:29:34;12.83;;;8.97;;
66189;SDS011;52992;52.084;5.412;2022-07-09T07:32:00;12.73;;;9.00;;
66189;SDS011;52992;52.084;5.412;2022-07-09T07:34:28;11.83;;;8.70;;
66189;SDS011;52992;52.084;5.412;2022-07-09T07:36:55;11.77;;;8.47;;
66189;SDS011;52992;52.084;5.412;2022-07-09T07:39:21;13.90;;;9.33;;
66189;SDS011;52992;52.084;5.412;2022-07-09T07:41:51;12.13;;;9.27;;
66189;SDS011;52992;52.084;5.412;2022-07-09T07:44:18;11.87;;;8.20;;
66189;SDS011;52992;52.084;5.412;2022-07-09T07:46:45;11.03;;;8.60;;
66189;SDS011;52992;52.084;5.412;2022-07-09T07:49:12;13.73;;;8.80;;
66189;SDS011;52992;52.084;5.412;2022-07-09T07:51:38;10.80;;;6.80;;
66189;SDS011;52992;52.084;5.412;2022-07-09T07:54:05;7.17;;;6.23;;
66189;SDS011;52992;52.084;5.412;2022-07-09T07:56:32;9.20;;;6.33;;
66189;SDS011;52992;52.084;5.412;2022-07-09T07:59:02;7.40;;;6.17;;
66189;SDS011;52992;52.084;5.412;2022-07-09T08:01:30;7.80;;;6.40;;
66189;SDS011;52992;52.084;5.412;2022-07-09T08:03:57;6.47;;;5.37;;
66189;SDS011;52992;52.084;5.412;2022-07-09T08:06:23;7.87;;;6.20;;
66189;SDS011;52992;52.084;5.412;2022-07-09T08:08:50;8.47;;;6.40;;
66189;SDS011;52992;52.084;5.412;2022-07-09T08:11:17;8.80;;;7.03;;
66189;SDS011;52992;52.084;5.412;2022-07-09T08:13:44;8.33;;;6.77;;
66189;SDS011;52992;52.084;5.412;2022-07-09T08:16:11;9.30;;;7.07;;
66189;SDS011;52992;52.084;5.412;2022-07-09T08:18:38;7.63;;;6.70;;
66189;SDS011;52992;52.084;5.412;2022-07-09T08:21:06;8.17;;;6.63;;
66189;SDS011;52992;52.084;5.412;2022-07-09T08:23:33;9.67;;;7.13;;
66189;SDS011;52992;52.084;5.412;2022-07-09T08:26:18;9.47;;;7.20;;
66189;SDS011;52992;52.084;5.412;2022-07-09T08:28:45;10.00;;;6.97;;
66189;SDS011;52992;52.084;5.412;2022-07-09T08:31:12;12.00;;;7.63;;
66189;SDS011;52992;52.084;5.412;2022-07-09T08:33:40;9.03;;;7.67;;
66189;SDS011;52992;52.084;5.412;2022-07-09T08:36:07;8.37;;;7.03;;
66189;SDS011;52992;52.084;5.412;2022-07-09T08:38:34;9.33;;;7.30;;
66189;SDS011;52992;52.084;5.412;2022-07-09T08:41:03;7.03;;;6.37;;
66189;SDS011;52992;52.084;5.412;2022-07-09T08:43:37;10.20;;;7.20;;
66189;SDS011;52992;52.084;5.412;2022-07-09T08:46:05;9.40;;;6.57;;
66189;SDS011;52992;52.084;5.412;2022-07-09T08:48:33;8.93;;;7.03;;
66189;SDS011;52992;52.084;5.412;2022-07-09T08:51:03;9.20;;;6.70;;
66189;SDS011;52992;52.084;5.412;2022-07-09T08:53:30;7.43;;;5.23;;
66189;SDS011;52992;52.084;5.412;2022-07-09T08:55:57;5.30;;;4.73;;
66189;SDS011;52992;52.084;5.412;2022-07-09T08:58:25;6.07;;;4.27;;
66189;SDS011;52992;52.084;5.412;2022-07-09T09:00:52;5.50;;;4.00;;
66189;SDS011;52992;52.084;5.412;2022-07-09T09:03:19;4.87;;;4.00;;
66189;SDS011;52992;52.084;5.412;2022-07-09T09:05:59;4.20;;;3.50;;
66189;SDS011;52992;52.084;5.412;2022-07-09T09:08:38;4.50;;;2.53;;
66189;SDS011;52992;52.084;5.412;2022-07-09T09:11:22;3.70;;;2.50;;
66189;SDS011;52992;52.084;5.412;2022-07-09T09:13:51;4.23;;;1.70;;
66189;SDS011;52992;52.084;5.412;2022-07-09T09:16:20;1.90;;;1.80;;
66189;SDS011;52992;52.084;5.412;2022-07-09T09:18:49;3.90;;;2.00;;
66189;SDS011;52992;52.084;5.412;2022-07-09T09:21:21;2.27;;;1.80;;
66189;SDS011;52992;52.084;5.412;2022-07-09T09:23:52;3.20;;;2.10;;
66189;SDS011;52992;52.084;5.412;2022-07-09T09:26:25;2.03;;;1.90;;
66189;SDS011;52992;52.084;5.412;2022-07-09T09:31:27;6.37;;;2.27;;
66189;SDS011;52992;52.084;5.412;2022-07-09T09:36:42;1.73;;;1.63;;
66189;SDS011;52992;52.084;5.412;2022-07-09T09:39:23;2.70;;;2.40;;
66189;SDS011;52992;52.084;5.412;2022-07-09T09:41:52;3.13;;;2.90;;
66189;SDS011;52992;52.084;5.412;2022-07-09T09:44:26;3.73;;;2.20;;
66189;SDS011;52992;52.084;5.412;2022-07-09T09:46:56;2.60;;;2.37;;
66189;SDS011;52992;52.084;5.412;2022-07-09T09:49:24;3.37;;;2.90;;
66189;SDS011;52992;52.084;5.412;2022-07-09T09:52:03;6.27;;;2.67;;
66189;SDS011;52992;52.084;5.412;2022-07-09T09:54:32;3.60;;;2.37;;
66189;SDS011;52992;52.084;5.412;2022-07-09T09:56:59;4.73;;;2.30;;
66189;SDS011;52992;52.084;5.412;2022-07-09T09:59:29;3.40;;;2.20;;
66189;SDS011;52992;52.084;5.412;2022-07-09T10:01:56;2.73;;;1.97;;
66189;SDS011;52992;52.084;5.412;2022-07-09T10:04:23;2.63;;;2.43;;
66189;SDS011;52992;52.084;5.412;2022-07-09T10:06:53;2.73;;;2.40;;
66189;SDS011;52992;52.084;5.412;2022-07-09T10:09:20;2.33;;;2.13;;
66189;SDS011;52992;52.084;5.412;2022-07-09T10:11:48;4.70;;;2.10;;
66189;SDS011;52992;52.084;5.412;2022-07-09T10:16:54;5.37;;;1.90;;
66189;SDS011;52992;52.084;5.412;2022-07-09T10:19:28;1.87;;;1.77;;
66189;SDS011;52992;52.084;5.412;2022-07-09T10:21:57;2.63;;;1.70;;
66189;SDS011;52992;52.084;5.412;2022-07-09T10:24:25;1.80;;;1.70;;
66189;SDS011;52992;52.084;5.412;2022-07-09T10:29:36;1.60;;;1.50;;
66189;SDS011;52992;52.084;5.412;2022-07-09T10:32:26;1.73;;;1.47;;
66189;SDS011;52992;52.084;5.412;2022-07-09T10:34:57;3.70;;;1.60;;
66189;SDS011;52992;52.084;5.412;2022-07-09T10:37:31;2.57;;;1.30;;
66189;SDS011;52992;52.084;5.412;2022-07-09T10:40:07;4.83;;;2.07;;
66189;SDS011;52992;52.084;5.412;2022-07-09T10:42:36;3.47;;;1.60;;
66189;SDS011;52992;52.084;5.412;2022-07-09T10:45:23;2.83;;;1.83;;
66189;SDS011;52992;52.084;5.412;2022-07-09T10:47:59;3.53;;;1.30;;
66189;SDS011;52992;52.084;5.412;2022-07-09T10:50:28;2.17;;;1.30;;
66189;SDS011;52992;52.084;5.412;2022-07-09T10:52:56;2.60;;;1.70;;
66189;SDS011;52992;52.084;5.412;2022-07-09T10:55:24;2.17;;;1.57;;
66189;SDS011;52992;52.084;5.412;2022-07-09T10:57:53;1.83;;;1.27;;
66189;SDS011;52992;52.084;5.412;2022-07-09T11:00:21;1.33;;;1.23;;
66189;SDS011;52992;52.084;5.412;2022-07-09T11:02:56;2.57;;;1.50;;
66189;SDS011;52992;52.084;5.412;2022-07-09T11:05:31;2.60;;;1.47;;
66189;SDS011;52992;52.084;5.412;2022-07-09T11:08:06;3.03;;;1.40;;
66189;SDS011;52992;52.084;5.412;2022-07-09T11:10:37;2.40;;;1.30;;
66189;SDS011;52992;52.084;5.412;2022-07-09T11:13:06;1.77;;;1.60;;
66189;SDS011;52992;52.084;5.412;2022-07-09T11:15:35;4.10;;;1.57;;
66189;SDS011;52992;52.084;5.412;2022-07-09T11:20:31;2.83;;;1.40;;
66189;SDS011;52992;52.084;5.412;2022-07-09T11:23:03;1.57;;;1.47;;
66189;SDS011;52992;52.084;5.412;2022-07-09T11:25:29;1.47;;;1.20;;
66189;SDS011;52992;52.084;5.412;2022-07-09T11:27:57;2.70;;;1.70;;
66189;SDS011;52992;52.084;5.412;2022-07-09T11:30:24;1.80;;;1.40;;
66189;SDS011;52992;52.084;5.412;2022-07-09T11:32:52;2.80;;;1.70;;
66189;SDS011;52992;52.084;5.412;2022-07-09T11:35:23;1.73;;;1.03;;
66189;SDS011;52992;52.084;5.412;2022-07-09T11:37:51;2.43;;;1.43;;
66189;SDS011;52992;52.084;5.412;2022-07-09T11:40:19;1.70;;;1.30;;
66189;SDS011;52992;52.084;5.412;2022-07-09T11:42:46;1.30;;;1.20;;
66189;SDS011;52992;52.084;5.412;2022-07-09T11:45:19;1.40;;;1.30;;
66189;SDS011;52992;52.084;5.412;2022-07-09T11:47:50;2.27;;;1.47;;
66189;SDS011;52992;52.084;5.412;2022-07-09T11:50:31;4.80;;;1.80;;
66189;SDS011;52992;52.084;5.412;2022-07-09T11:52:59;1.93;;;1.13;;
66189;SDS011;52992;52.084;5.412;2022-07-09T11:55:30;2.90;;;1.40;;
66189;SDS011;52992;52.084;5.412;2022-07-09T11:57:58;3.67;;;1.27;;
66189;SDS011;52992;52.084;5.412;2022-07-09T12:00:32;2.70;;;1.43;;
66189;SDS011;52992;52.084;5.412;2022-07-09T12:03:00;1.43;;;1.33;;
66189;SDS011;52992;52.084;5.412;2022-07-09T12:05:31;2.90;;;1.47;;
66189;SDS011;52992;52.084;5.412;2022-07-09T12:08:01;2.43;;;1.17;;
66189;SDS011;52992;52.084;5.412;2022-07-09T12:10:30;1.43;;;1.10;;
66189;SDS011;52992;52.084;5.412;2022-07-09T12:12:59;1.20;;;1.10;;
66189;SDS011;52992;52.084;5.412;2022-07-09T12:15:26;3.50;;;1.30;;
66189;SDS011;52992;52.084;5.412;2022-07-09T12:17:55;3.53;;;1.50;;
66189;SDS011;52992;52.084;5.412;2022-07-09T12:20:24;1.67;;;1.13;;
66189;SDS011;52992;52.084;5.412;2022-07-09T12:22:58;3.57;;;1.33;;
66189;SDS011;52992;52.084;5.412;2022-07-09T12:25:25;2.33;;;1.57;;
66189;SDS011;52992;52.084;5.412;2022-07-09T12:27:52;2.17;;;1.70;;
66189;SDS011;52992;52.084;5.412;2022-07-09T12:30:18;4.47;;;1.57;;
66189;SDS011;52992;52.084;5.412;2022-07-09T12:32:46;3.63;;;1.47;;
66189;SDS011;52992;52.084;5.412;2022-07-09T12:35:13;1.93;;;1.47;;
66189;SDS011;52992;52.084;5.412;2022-07-09T12:37:40;2.83;;;1.33;;
66189;SDS011;52992;52.084;5.412;2022-07-09T12:40:08;2.90;;;1.50;;
66189;SDS011;52992;52.084;5.412;2022-07-09T12:42:39;4.20;;;1.50;;
66189;SDS011;52992;52.084;5.412;2022-07-09T12:45:06;2.57;;;1.30;;
66189;SDS011;52992;52.084;5.412;2022-07-09T12:47:36;3.57;;;1.20;;
66189;SDS011;52992;52.084;5.412;2022-07-09T12:50:04;2.97;;;1.70;;
66189;SDS011;52992;52.084;5.412;2022-07-09T12:52:31;1.90;;;1.53;;
66189;SDS011;52992;52.084;5.412;2022-07-09T12:55:03;2.60;;;1.13;;
66189;SDS011;52992;52.084;5.412;2022-07-09T12:57:31;4.63;;;1.50;;
66189;SDS011;52992;52.084;5.412;2022-07-09T12:59:57;1.17;;;1.07;;
66189;SDS011;52992;52.084;5.412;2022-07-09T13:02:24;1.73;;;1.30;;
66189;SDS011;52992;52.084;5.412;2022-07-09T13:04:52;2.20;;;1.63;;
66189;SDS011;52992;52.084;5.412;2022-07-09T13:07:19;2.93;;;1.57;;
66189;SDS011;52992;52.084;5.412;2022-07-09T13:09:46;2.50;;;1.33;;
66189;SDS011;52992;52.084;5.412;2022-07-09T13:12:13;1.53;;;1.20;;
66189;SDS011;52992;52.084;5.412;2022-07-09T13:14:40;5.33;;;1.33;;
66189;SDS011;52992;52.084;5.412;2022-07-09T13:17:07;2.03;;;1.30;;
66189;SDS011;52992;52.084;5.412;2022-07-09T13:19:54;2.17;;;1.27;;
66189;SDS011;52992;52.084;5.412;2022-07-09T13:22:23;1.83;;;1.10;;
66189;SDS011;52992;52.084;5.412;2022-07-09T13:24:50;2.67;;;2.13;;
66189;SDS011;52992;52.084;5.412;2022-07-09T13:27:17;1.87;;;1.50;;
66189;SDS011;52992;52.084;5.412;2022-07-09T13:29:45;3.23;;;1.30;;
66189;SDS011;52992;52.084;5.412;2022-07-09T13:32:12;2.17;;;1.33;;
66189;SDS011;52992;52.084;5.412;2022-07-09T13:34:47;3.27;;;1.57;;
66189;SDS011;52992;52.084;5.412;2022-07-09T13:37:17;1.90;;;1.20;;
66189;SDS011;52992;52.084;5.412;2022-07-09T13:39:45;1.27;;;1.07;;
66189;SDS011;52992;52.084;5.412;2022-07-09T13:42:12;2.33;;;1.10;;
66189;SDS011;52992;52.084;5.412;2022-07-09T13:44:39;2.37;;;1.27;;
66189;SDS011;52992;52.084;5.412;2022-07-09T13:47:06;3.30;;;1.30;;
66189;SDS011;52992;52.084;5.412;2022-07-09T13:49:32;3.33;;;1.40;;
66189;SDS011;52992;52.084;5.412;2022-07-09T13:51:59;3.70;;;1.60;;
66189;SDS011;52992;52.084;5.412;2022-07-09T13:54:26;3.10;;;1.93;;
66189;SDS011;52992;52.084;5.412;2022-07-09T13:56:54;4.03;;;1.77;;
66189;SDS011;52992;52.084;5.412;2022-07-09T13:59:22;3.13;;;1.80;;
66189;SDS011;52992;52.084;5.412;2022-07-09T14:01:49;4.07;;;1.83;;
66189;SDS011;52992;52.084;5.412;2022-07-09T14:04:16;5.93;;;2.07;;
66189;SDS011;52992;52.084;5.412;2022-07-09T14:06:43;5.03;;;2.20;;
66189;SDS011;52992;52.084;5.412;2022-07-09T14:09:12;4.67;;;2.00;;
66189;SDS011;52992;52.084;5.412;2022-07-09T14:11:39;5.27;;;1.70;;
66189;SDS011;52992;52.084;5.412;2022-07-09T14:14:06;4.50;;;1.70;;
66189;SDS011;52992;52.084;5.412;2022-07-09T14:16:33;5.40;;;1.80;;
66189;SDS011;52992;52.084;5.412;2022-07-09T14:19:00;3.53;;;1.67;;
66189;SDS011;52992;52.084;5.412;2022-07-09T14:21:27;5.60;;;1.70;;
66189;SDS011;52992;52.084;5.412;2022-07-09T14:23:56;3.47;;;1.57;;
66189;SDS011;52992;52.084;5.412;2022-07-09T14:26:23;3.57;;;1.80;;
66189;SDS011;52992;52.084;5.412;2022-07-09T14:28:50;4.90;;;1.50;;
66189;SDS011;52992;52.084;5.412;2022-07-09T14:31:17;4.87;;;2.37;;
66189;SDS011;52992;52.084;5.412;2022-07-09T14:33:44;5.57;;;1.93;;
66189;SDS011;52992;52.084;5.412;2022-07-09T14:36:11;3.20;;;1.80;;
66189;SDS011;52992;52.084;5.412;2022-07-09T14:38:38;2.50;;;1.57;;
66189;SDS011;52992;52.084;5.412;2022-07-09T14:41:06;6.00;;;1.83;;
66189;SDS011;52992;52.084;5.412;2022-07-09T14:43:32;3.73;;;1.63;;
66189;SDS011;52992;52.084;5.412;2022-07-09T14:45:59;4.43;;;2.27;;
66189;SDS011;52992;52.084;5.412;2022-07-09T14:48:26;2.10;;;1.50;;
66189;SDS011;52992;52.084;5.412;2022-07-09T14:50:53;2.27;;;1.47;;
66189;SDS011;52992;52.084;5.412;2022-07-09T14:53:19;2.13;;;1.30;;
66189;SDS011;52992;52.084;5.412;2022-07-09T14:55:46;5.87;;;1.70;;
66189;SDS011;52992;52.084;5.412;2022-07-09T14:58:13;3.43;;;1.50;;
66189;SDS011;52992;52.084;5.412;2022-07-09T15:00:40;2.20;;;1.40;;